Time;durP1;ratioP1;P1;durP2;ratioP2;P2;SDS_P1;SDS_P2;PMS_P1;PMS_P2;Temp;Humidity;BMP_temperature;BMP_pressure;BME280_temperature;BME280_humidity;BME280_pressure;Samples;Min_cycle;Max_cycle;Signal;HPM_P1;HPM_P2
2022/11/09 00:01:09;;;;;;;1999.90;999.90;;;;;;;6.93;100.00;94979.81;5020144;28;20229;-61
2022/11/09 00:03:35;;;;;;;1999.90;999.90;;;;;;;6.88;100.00;94986.41;5019834;28;20199;-61
2022/11/09 00:06:00;;;;;;;1999.90;999.90;;;;;;;6.87;100.00;94984.06;5020700;28;20623;-61
2022/11/09 00:08:26;;;;;;;1999.90;999.90;;;;;;;6.85;100.00;94980.97;5020244;28;20184;-61
2022/11/09 00:10:51;;;;;;;1999.90;999.90;;;;;;;6.83;100.00;94980.59;5020116;28;20229;-61
2022/11/09 00:13:16;;;;;;;1999.90;999.90;;;;;;;6.82;100.00;94976.31;5020069;28;20201;-62
2022/11/09 00:15:41;;;;;;;1999.90;999.90;;;;;;;6.86;100.00;94993.38;5020421;28;20241;-63
2022/11/09 00:18:07;;;;;;;1999.90;999.90;;;;;;;6.86;100.00;94993.38;5019772;28;20178;-62
2022/11/09 00:20:32;;;;;;;1999.90;999.90;;;;;;;6.85;100.00;94991.84;5019707;28;20232;-63
2022/11/09 00:22:58;;;;;;;1999.90;999.90;;;;;;;6.85;100.00;95008.13;5019502;28;20186;-62
2022/11/09 00:25:23;;;;;;;1999.90;999.90;;;;;;;6.85;100.00;95013.53;5019684;28;20180;-63
2022/11/09 00:27:48;;;;;;;1999.90;999.90;;;;;;;6.86;100.00;95004.22;5019457;28;20184;-63
2022/11/09 00:30:14;;;;;;;1999.90;999.90;;;;;;;6.83;100.00;95000.38;5019465;28;20548;-62
2022/11/09 00:32:39;;;;;;;1999.90;999.90;;;;;;;6.78;100.00;94997.25;5019555;28;20182;-63
2022/11/09 00:35:05;;;;;;;1999.90;999.90;;;;;;;6.74;100.00;95001.91;5020160;28;20318;-63
2022/11/09 00:37:31;;;;;;;1999.90;999.90;;;;;;;6.74;100.00;95001.91;5036884;28;20262;-63
2022/11/09 00:39:56;;;;;;;1999.90;999.90;;;;;;;6.81;100.00;95007.31;5019400;28;20201;-63
2022/11/09 00:42:22;;;;;;;1999.90;999.90;;;;;;;6.79;100.00;95009.66;5019403;28;20659;-64
2022/11/09 00:44:47;;;;;;;1999.90;999.90;;;;;;;6.81;100.00;95018.16;5019553;28;20186;-63
2022/11/09 00:47:12;;;;;;;1999.90;999.90;;;;;;;6.84;100.00;95014.69;5019398;28;20179;-61
2022/11/09 00:49:38;;;;;;;1999.90;999.90;;;;;;;6.82;100.00;95019.75;5019863;28;20210;-64
2022/11/09 00:52:03;;;;;;;1999.90;999.90;;;;;;;6.82;100.00;95015.06;5020014;28;20177;-60
2022/11/09 00:54:29;;;;;;;1999.90;999.90;;;;;;;6.78;100.00;95013.53;5018882;28;20270;-60
2022/11/09 00:56:54;;;;;;;1999.90;999.90;;;;;;;6.75;100.00;95017.03;5019241;28;20183;-60
2022/11/09 00:59:19;;;;;;;1999.90;999.90;;;;;;;6.80;100.00;95022.84;5019735;28;20202;-61
2022/11/09 01:01:45;;;;;;;1999.90;999.90;;;;;;;6.80;100.00;95022.06;5018934;28;20296;-60
2022/11/09 01:04:10;;;;;;;1999.90;999.90;;;;;;;6.81;100.00;95024.38;5019111;28;20198;-60
2022/11/09 01:06:35;;;;;;;1999.90;999.90;;;;;;;6.76;100.00;95021.28;5019579;28;20185;-60
2022/11/09 01:09:01;;;;;;;1999.90;999.90;;;;;;;6.70;100.00;95017.41;5018413;28;20181;-61
2022/11/09 01:11:27;;;;;;;1999.90;999.90;;;;;;;6.70;100.00;95022.81;5018535;28;20267;-61
2022/11/09 01:13:53;;;;;;;1999.90;999.90;;;;;;;6.74;100.00;95023.63;5019033;28;20185;-61
2022/11/09 01:16:21;;;;;;;1999.90;999.90;;;;;;;6.78;100.00;95021.69;5018859;28;20181;-61
2022/11/09 01:18:47;;;;;;;1999.90;999.90;;;;;;;6.83;100.00;95032.13;5019389;28;20193;-61
2022/11/09 01:21:14;;;;;;;1999.90;999.90;;;;;;;6.84;100.00;95044.53;5018730;28;20341;-61
2022/11/09 01:23:41;;;;;;;1999.90;999.90;;;;;;;6.79;100.00;95036.78;5018730;28;20179;-61
2022/11/09 01:26:08;;;;;;;1999.90;999.90;;;;;;;6.75;100.00;95042.19;5019295;28;20181;-62
2022/11/09 01:28:34;;;;;;;1999.90;999.90;;;;;;;6.70;100.00;95039.09;5019089;28;20180;-63
2022/11/09 01:31:05;;;;;;;1999.90;999.90;;;;;;;6.68;100.00;95038.72;5019061;28;20238;-63
2022/11/09 01:33:31;;;;;;;1999.90;999.90;;;;;;;6.62;100.00;95032.13;5019584;28;20175;-62
2022/11/09 01:36:05;;;;;;;1999.90;999.90;;;;;;;6.65;100.00;95042.22;5019414;28;20179;-63
2022/11/09 01:38:31;;;;;;;1999.90;999.90;;;;;;;6.65;100.00;95025.94;5018899;28;20184;-63
2022/11/09 01:40:56;;;;;;;1999.90;999.90;;;;;;;6.60;100.00;95026.31;5018197;28;20207;-62
2022/11/09 01:43:23;;;;;;;1999.90;999.90;;;;;;;6.56;100.00;95029.03;5018133;28;20180;-60
2022/11/09 01:45:55;;;;;;;1999.90;999.90;;;;;;;6.52;100.00;95027.47;5018321;28;20202;-60
2022/11/09 01:48:27;;;;;;;1999.90;999.90;;;;;;;6.49;100.00;95028.25;5018850;28;20178;-63
2022/11/09 01:50:57;;;;;;;1999.90;999.90;;;;;;;6.39;100.00;95026.28;5018263;28;20251;-60
2022/11/09 01:53:28;;;;;;;1999.90;999.90;;;;;;;6.36;100.00;95018.91;5018126;28;20228;-60
2022/11/09 01:55:58;;;;;;;1999.90;999.90;;;;;;;6.33;100.00;95019.69;5018720;28;20178;-60
2022/11/09 01:58:29;;;;;;;1999.90;999.90;;;;;;;6.30;100.00;95015.03;5018129;28;20234;-61
2022/11/09 02:00:57;;;;;;;1999.90;999.90;;;;;;;6.25;100.00;95015.41;5018504;28;20241;-61
2022/11/09 02:03:39;;;;;;;1999.90;999.90;;;;;;;6.20;100.00;95010.38;5017991;28;20215;-61
2022/11/09 02:06:07;;;;;;;1999.90;999.90;;;;;;;6.17;100.00;95008.44;5017558;28;20165;-60
2022/11/09 02:08:33;;;;;;;1999.90;999.90;;;;;;;6.12;100.00;95006.13;5017864;28;20229;-60
2022/11/09 02:11:09;;;;;;;1999.90;999.90;;;;;;;6.14;100.00;95001.06;5017868;28;20576;-60
2022/11/09 02:13:37;;;;;;;1999.90;999.90;;;;;;;6.13;100.00;95004.94;5017468;28;20210;-60
2022/11/09 02:16:03;;;;;;;1999.90;999.90;;;;;;;6.09;100.00;94999.50;5018369;28;20175;-60
2022/11/09 02:18:30;;;;;;;1999.90;999.90;;;;;;;6.05;100.00;94987.88;5017771;28;20347;-61
2022/11/09 02:20:57;;;;;;;1999.90;999.90;;;;;;;6.03;100.00;94992.13;5014447;28;20234;-62
2022/11/09 02:23:24;;;;;;;1999.90;999.90;;;;;;;6.04;100.00;94996.38;5014386;28;20196;-60
2022/11/09 02:25:59;;;;;;;1999.90;999.90;;;;;;;6.03;100.00;94992.94;5014499;28;20195;-60
2022/11/09 02:28:26;;;;;;;1999.90;999.90;;;;;;;6.01;100.00;94989.06;5015201;28;20171;-60
2022/11/09 02:30:54;;;;;;;1999.90;999.90;;;;;;;5.97;100.00;94985.53;5014016;28;20184;-60
2022/11/09 02:33:19;;;;;;;1999.90;999.90;;;;;;;5.94;100.00;94989.03;5014120;28;20263;-60
2022/11/09 02:35:44;;;;;;;1999.90;999.90;;;;;;;5.92;100.00;94984.00;5014235;28;20323;-60
2022/11/09 02:38:12;;;;;;;1999.90;999.90;;;;;;;5.90;100.00;94977.41;5014321;28;20185;-63
2022/11/09 02:40:41;;;;;;;1999.90;999.90;;;;;;;5.90;100.00;94974.69;5014006;28;20294;-63
2022/11/09 02:43:08;;;;;;;1999.90;999.90;;;;;;;5.89;100.00;94983.97;5014211;28;20172;-65
2022/11/09 02:45:34;;;;;;;1999.90;999.90;;;;;;;5.85;100.00;94973.13;5014039;28;20172;-63
2022/11/09 02:47:59;;;;;;;1999.90;999.90;;;;;;;5.84;100.00;94976.22;5013783;28;20347;-63
2022/11/09 02:50:25;;;;;;;1999.90;999.90;;;;;;;5.82;100.00;94979.31;5014493;28;20180;-64
2022/11/09 02:52:50;;;;;;;1999.90;999.90;;;;;;;5.81;100.00;94976.97;5014507;28;20179;-64
2022/11/09 02:55:16;;;;;;;1999.90;999.90;;;;;;;5.79;100.00;94974.63;5013883;28;20180;-63
2022/11/09 02:57:41;;;;;;;1999.90;999.90;;;;;;;5.76;100.00;94971.91;5014179;28;20279;-61
2022/11/09 03:00:07;;;;;;;1999.90;999.90;;;;;;;5.72;100.00;94984.69;5014266;28;20199;-61
2022/11/09 03:02:33;;;;;;;1999.90;999.90;;;;;;;5.73;100.00;94980.81;5013817;28;20206;-62
2022/11/09 03:04:58;;;;;;;1999.90;999.90;;;;;;;5.72;100.00;94979.25;5013602;28;20191;-61
2022/11/09 03:07:24;;;;;;;1999.90;999.90;;;;;;;5.68;100.00;94978.47;5013763;28;20270;-62
2022/11/09 03:09:49;;;;;;;1999.90;999.90;;;;;;;5.64;100.00;94978.44;5013681;28;20217;-62
2022/11/09 03:12:30;;;;;;;1999.90;999.90;;;;;;;5.63;100.00;94976.13;5013574;28;20203;-61
2022/11/09 03:15:01;;;;;;;1999.90;999.90;;;;;;;5.62;100.00;94964.53;5014298;28;20167;-63
2022/11/09 03:17:27;;;;;;;1999.90;999.90;;;;;;;5.58;100.00;94960.25;5014333;28;20262;-61
2022/11/09 03:19:53;;;;;;;1999.90;999.90;;;;;;;5.54;100.00;94951.34;5013217;28;20298;-61
2022/11/09 03:22:19;;;;;;;1999.90;999.90;;;;;;;5.51;100.00;94952.09;5014293;28;20168;-61
2022/11/09 03:24:44;;;;;;;1999.90;999.90;;;;;;;5.53;100.00;94955.19;5014229;28;20175;-61
2022/11/09 03:27:10;;;;;;;1999.90;999.90;;;;;;;5.54;100.00;94956.75;5013519;28;20177;-61
2022/11/09 03:29:36;;;;;;;1999.90;999.90;;;;;;;5.56;100.00;94959.84;5013613;28;20261;-61
2022/11/09 03:32:01;;;;;;;1999.90;999.90;;;;;;;5.58;100.00;94962.97;5016864;28;20174;-61
2022/11/09 03:34:26;;;;;;;1999.90;999.90;;;;;;;5.56;100.00;94952.50;5018005;28;20218;-63
2022/11/09 03:36:52;;;;;;;1999.90;999.90;;;;;;;5.56;100.00;94966.03;5017549;28;20180;-61
2022/11/09 03:39:18;;;;;;;1999.90;999.90;;;;;;;5.57;100.00;94962.16;5017669;28;20179;-61
2022/11/09 03:41:43;;;;;;;1999.90;999.90;;;;;;;5.53;100.00;94961.38;5017576;28;20204;-61
2022/11/09 03:44:11;;;;;;;1999.90;999.90;;;;;;;5.53;100.00;94950.56;5017436;28;20172;-63
2022/11/09 03:46:36;;;;;;;1999.90;999.90;;;;;;;5.54;100.00;94968.34;5016859;28;20183;-61
2022/11/09 03:49:02;;;;;;;1999.90;999.90;;;;;;;5.53;100.00;94961.38;5017665;28;20215;-61
2022/11/09 03:51:27;;;;;;;1999.90;999.90;;;;;;;5.54;100.00;94952.09;5017143;28;20183;-63
2022/11/09 03:53:52;;;;;;;1999.90;999.90;;;;;;;5.53;100.00;94950.56;5016918;28;20176;-62
2022/11/09 03:56:18;;;;;;;1999.90;999.90;;;;;;;5.56;100.00;94954.44;5017387;28;20183;-63
2022/11/09 03:58:43;;;;;;;1999.90;999.90;;;;;;;5.54;100.00;94956.75;5017537;28;20176;-63
2022/11/09 04:01:09;;;;;;;1999.90;999.90;;;;;;;5.51;100.00;94943.97;5016925;28;20226;-65
2022/11/09 04:03:35;;;;;;;1999.90;999.90;;;;;;;5.52;100.00;94945.50;5017467;28;20182;-63
2022/11/09 04:06:01;;;;;;;1999.90;999.90;;;;;;;5.52;100.00;94951.72;5016953;28;20173;-64
2022/11/09 04:08:26;;;;;;;1999.90;999.90;;;;;;;5.52;100.00;94953.63;5017454;28;20171;-63
2022/11/09 04:10:51;;;;;;;1999.90;999.90;;;;;;;5.57;100.00;94945.16;5016965;28;20254;-62
2022/11/09 04:13:17;;;;;;;1999.90;999.90;;;;;;;5.56;100.00;94951.72;5017564;28;20184;-63
2022/11/09 04:15:42;;;;;;;1999.90;999.90;;;;;;;5.55;100.00;94945.53;5017358;28;20187;-63
2022/11/09 04:18:12;;;;;;;1999.90;999.90;;;;;;;5.58;100.00;94952.13;5017273;28;20180;-63
2022/11/09 04:20:37;;;;;;;1999.90;999.90;;;;;;;5.60;100.00;94953.28;5016375;28;20228;-63
2022/11/09 04:23:04;;;;;;;1999.90;999.90;;;;;;;5.70;100.00;94957.19;5016406;28;20188;-63
2022/11/09 04:25:38;;;;;;;1999.90;999.90;;;;;;;5.74;100.00;94957.97;5016708;28;20178;-64
2022/11/09 04:28:05;;;;;;;1999.90;999.90;;;;;;;5.75;100.00;94957.59;5016450;28;20181;-61
2022/11/09 04:30:32;;;;;;;1999.90;999.90;;;;;;;5.77;100.00;94949.09;5017365;28;20222;-61
2022/11/09 04:32:59;;;;;;;1999.90;999.90;;;;;;;5.84;100.00;94957.25;5016279;28;20188;-61
2022/11/09 04:35:26;;;;;;;1999.90;999.90;;;;;;;5.89;100.00;94962.28;5016881;28;20176;-61
2022/11/09 04:37:56;;;;;;;1999.90;999.90;;;;;;;5.90;100.00;94969.28;5016788;28;20181;-60
2022/11/09 04:40:22;;;;;;;1999.90;999.90;;;;;;;5.94;100.00;94978.19;5016443;28;20216;-60
2022/11/09 04:42:48;;;;;;;1999.90;999.90;;;;;;;5.96;100.00;94984.78;5014995;28;20185;-61
2022/11/09 04:45:13;;;;;;;1999.90;999.90;;;;;;;6.00;100.00;94984.78;5016185;28;20219;-62
2022/11/09 04:47:39;;;;;;;1999.90;999.90;;;;;;;6.03;100.00;94994.84;5016196;28;20178;-61
2022/11/09 04:50:05;;;;;;;1999.90;999.90;;;;;;;6.08;100.00;94997.97;5016578;28;20181;-59
2022/11/09 04:52:30;;;;;;;1999.90;999.90;;;;;;;6.10;100.00;94989.44;5015498;28;20183;-60
2022/11/09 04:54:55;;;;;;;1999.90;999.90;;;;;;;6.10;100.00;94986.72;5015891;28;20191;-60
2022/11/09 04:57:21;;;;;;;1999.90;999.90;;;;;;;6.12;100.00;94992.56;5016592;28;20197;-60
2022/11/09 04:59:46;;;;;;;1999.90;999.90;;;;;;;6.12;100.00;95003.41;5015508;28;20188;-60
2022/11/09 05:02:11;;;;;;;1999.90;999.90;;;;;;;6.19;100.00;95003.38;5016248;28;20185;-61
2022/11/09 05:04:37;;;;;;;1999.90;999.90;;;;;;;6.21;100.00;95006.50;5015703;28;20227;-61
2022/11/09 05:07:02;;;;;;;1999.90;999.90;;;;;;;6.25;100.00;95012.72;5015747;28;20191;-63
2022/11/09 05:09:27;;;;;;;1999.90;999.90;;;;;;;6.29;100.00;95018.91;5015781;28;20204;-63
2022/11/09 05:11:53;;;;;;;1999.90;999.90;;;;;;;6.31;100.00;95016.59;5015603;28;20181;-63
2022/11/09 05:14:18;;;;;;;1999.90;999.90;;;;;;;6.33;100.00;95016.97;5015712;28;20191;-64
2022/11/09 05:16:43;;;;;;;1999.90;999.90;;;;;;;6.35;100.00;95025.50;5015611;28;20191;-64
2022/11/09 05:19:09;;;;;;;1999.90;999.90;;;;;;;6.32;100.00;95029.00;5016102;28;20182;-62
2022/11/09 05:21:34;;;;;;;1999.90;999.90;;;;;;;6.30;100.00;95031.28;5016001;28;20229;-62
2022/11/09 05:23:59;;;;;;;1999.90;999.90;;;;;;;6.31;100.00;95027.44;5015453;28;20204;-61
2022/11/09 05:26:28;;;;;;;1999.90;999.90;;;;;;;6.33;100.00;95025.91;5015482;28;20211;-62
2022/11/09 05:28:53;;;;;;;1999.90;999.90;;;;;;;6.32;100.00;95029.00;5015331;28;20210;-62
2022/11/09 05:31:19;;;;;;;1999.90;999.90;;;;;;;6.34;100.00;95040.25;5015871;28;20204;-62
2022/11/09 05:33:48;;;;;;;1999.90;999.90;;;;;;;6.40;100.00;95035.97;5014737;28;20184;-62
2022/11/09 05:36:13;;;;;;;1999.90;999.90;;;;;;;6.46;100.00;95039.88;5015092;28;20240;-62
2022/11/09 05:38:39;;;;;;;1999.90;999.90;;;;;;;6.44;100.00;95037.53;5015109;28;20184;-62
2022/11/09 05:41:04;;;;;;;1999.90;999.90;;;;;;;6.38;100.00;95027.47;5014773;28;20308;-62
2022/11/09 05:43:29;;;;;;;1999.90;999.90;;;;;;;6.36;100.00;95025.13;5015157;28;20263;-60
2022/11/09 05:45:55;;;;;;;1999.90;999.90;;;;;;;6.33;100.00;95025.91;5015043;28;20242;-61
2022/11/09 05:48:20;;;;;;;1999.90;999.90;;;;;;;6.39;100.00;95039.84;5014672;28;20204;-61
2022/11/09 05:50:45;;;;;;;1999.90;999.90;;;;;;;6.48;100.00;95029.38;5014732;28;20204;-61
2022/11/09 05:53:11;;;;;;;1999.90;999.90;;;;;;;6.55;100.00;95034.81;5014942;28;20670;-62
2022/11/09 05:55:37;;;;;;;1999.90;999.90;;;;;;;6.63;100.00;95033.69;5014398;28;20259;-61
2022/11/09 05:58:03;;;;;;;1999.90;999.90;;;;;;;6.68;100.00;95036.81;5014797;28;20180;-61
2022/11/09 06:00:29;;;;;;;1999.90;999.90;;;;;;;6.75;100.00;95049.59;5014541;28;20232;-62
2022/11/09 06:03:01;;;;;;;1999.90;999.90;;;;;;;6.77;100.00;95060.81;5014660;28;20175;-62
2022/11/09 06:05:27;;;;;;;1999.90;999.90;;;;;;;6.74;100.00;95056.19;5015065;28;20190;-61
2022/11/09 06:07:52;;;;;;;1999.90;999.90;;;;;;;6.75;100.00;95049.59;5014587;28;20184;-62
2022/11/09 06:10:17;;;;;;;1999.90;999.90;;;;;;;6.76;100.00;95059.28;5014600;28;20184;-61
2022/11/09 06:12:43;;;;;;;1999.90;999.90;;;;;;;6.76;100.00;95061.97;5014961;28;20177;-61
2022/11/09 06:15:08;;;;;;;1999.90;999.90;;;;;;;6.78;100.00;95055.00;5014543;28;20205;-61
2022/11/09 06:17:34;;;;;;;1999.90;999.90;;;;;;;6.86;100.00;95063.94;5014201;28;20258;-62
2022/11/09 06:19:59;;;;;;;1999.90;999.90;;;;;;;6.93;100.00;95069.38;5014001;28;20228;-63
2022/11/09 06:22:24;;;;;;;1999.90;999.90;;;;;;;7.17;100.00;95078.69;5014184;28;20185;-60
2022/11/09 06:24:49;;;;;;;1999.90;999.90;;;;;;;7.48;100.00;95081.34;5014357;28;20180;-60
2022/11/09 06:27:15;;;;;;;1999.90;999.90;;;;;;;7.75;100.00;95085.16;5014301;28;20182;-60
2022/11/09 06:29:40;;;;;;;1999.90;999.90;;;;;;;8.04;100.00;95100.22;5014657;28;20200;-60
2022/11/09 06:32:05;;;;;;;1999.90;999.90;;;;;;;8.30;100.00;95097.03;5014031;28;20225;-60
2022/11/09 06:34:31;;;;;;;1999.90;999.90;;;;;;;8.55;100.00;95108.59;5014549;28;20277;-61
2022/11/09 06:36:56;;;;;;;1999.90;999.90;;;;;;;8.85;100.00;95105.31;5014317;28;20175;-60
2022/11/09 06:39:22;;;;;;;1999.90;999.90;;;;;;;8.92;100.00;95119.63;5014095;28;20179;-60
2022/11/09 06:41:47;;;;;;;1999.90;999.90;;;;;;;9.20;100.00;95135.78;5013662;28;20547;-61
2022/11/09 06:44:13;;;;;;;1999.90;999.90;;;;;;;9.97;100.00;95140.56;5013876;28;20183;-61
2022/11/09 06:46:38;;;;;;;1999.90;999.90;;;;;;;11.35;100.00;95150.53;5014419;28;20201;-61
2022/11/09 06:49:03;;;;;;;1999.90;999.90;;;;;;;11.95;100.00;95172.28;5014304;28;20178;-60
2022/11/09 06:51:29;;;;;;;1999.90;999.90;;;;;;;12.90;100.00;95184.94;5014151;28;20530;-62
2022/11/09 06:53:54;;;;;;;1999.90;999.90;;;;;;;14.33;100.00;95180.84;5013992;28;20185;-63
2022/11/09 06:56:19;;;;;;;1999.90;999.90;;;;;;;14.91;100.00;95187.91;5013853;28;20207;-61
2022/11/09 06:58:45;;;;;;;1999.90;999.90;;;;;;;15.29;100.00;95191.50;5013902;28;20262;-62
2022/11/09 07:01:15;;;;;;;1999.90;999.90;;;;;;;15.43;100.00;95195.81;5013755;28;20687;-62
2022/11/09 07:03:41;;;;;;;1999.90;999.90;;;;;;;15.41;100.00;95210.03;5014057;28;20202;-63
2022/11/09 07:06:08;;;;;;;1999.90;999.90;;;;;;;15.59;100.00;95215.03;5013342;28;20175;-63
2022/11/09 07:08:34;;;;;;;1999.90;999.90;;;;;;;15.25;100.00;95218.34;5013410;28;20179;-63
2022/11/09 07:11:11;;;;;;;1999.90;999.90;;;;;;;15.29;100.00;95224.50;5013278;28;20261;-63
2022/11/09 07:13:37;;;;;;;1999.90;999.90;;;;;;;15.64;100.00;95222.72;5014005;28;20202;-64
2022/11/09 07:16:03;;;;;;;1999.90;999.90;;;;;;;15.48;100.00;95231.84;5013351;28;20226;-61
2022/11/09 07:18:29;;;;;;;1999.90;999.90;;;;;;;15.16;100.00;95237.47;5013567;28;20175;-60
2022/11/09 07:20:54;;;;;;;1999.90;999.90;;;;;;;14.47;100.00;95243.69;5013367;28;20231;-62
2022/11/09 07:23:19;;;;;;;1999.90;999.90;;;;;;;13.77;100.00;95242.59;5013215;28;20268;-61
2022/11/09 07:25:45;;;;;;;1999.90;999.90;;;;;;;13.37;100.00;95241.16;5013440;28;20183;-61
2022/11/09 07:28:11;;;;;;;1999.90;999.90;;;;;;;12.92;100.00;95240.09;5013734;28;20179;-61
2022/11/09 07:30:37;;;;;;;1999.90;999.90;;;;;;;12.57;100.00;95254.50;5013819;28;20175;-62
2022/11/09 07:33:03;;;;;;;1999.90;999.90;;;;;;;12.28;100.00;95242.47;5013226;28;20186;-61
2022/11/09 07:35:29;;;;;;;1999.90;999.90;;;;;;;12.09;100.00;95226.78;5013847;28;20211;-63
2022/11/09 07:38:00;;;;;;;1999.90;999.90;;;;;;;12.02;100.00;95224.16;5013555;28;20207;-64
2022/11/09 07:40:25;;;;;;;1999.90;999.90;;;;;;;11.98;100.00;95223.44;5013859;28;20204;-63
2022/11/09 07:42:51;;;;;;;1999.90;999.90;;;;;;;12.00;100.00;95226.53;5013992;28;20183;-63
2022/11/09 07:45:16;;;;;;;1999.90;999.90;;;;;;;12.05;100.00;95231.50;5013258;28;20191;-63
2022/11/09 07:47:41;;;;;;;1999.90;999.90;;;;;;;12.16;100.00;95226.63;5013200;28;20186;-62
2022/11/09 07:50:07;;;;;;;1999.90;999.90;;;;;;;12.24;100.00;95228.09;5013249;28;20194;-62
2022/11/09 07:52:32;;;;;;;1999.90;999.90;;;;;;;12.26;100.00;95229.22;5013041;28;20175;-61
2022/11/09 07:54:58;;;;;;;1999.90;999.90;;;;;;;12.29;100.00;95227.59;5013123;28;20172;-62
2022/11/09 07:57:23;;;;;;;1999.90;999.90;;;;;;;12.38;100.00;95225.06;5013774;28;20188;-62
2022/11/09 07:59:50;;;;;;;1999.90;999.90;;;;;;;12.45;100.00;95230.44;5013731;28;20199;-61
2022/11/09 08:02:16;;;;;;;1999.90;999.90;;;;;;;12.52;100.00;95230.31;5013573;28;20207;-62
2022/11/09 08:04:41;;;;;;;1999.90;999.90;;;;;;;12.65;100.00;95233.97;5013040;28;20201;-61
2022/11/09 08:07:06;;;;;;;1999.90;999.90;;;;;;;12.69;100.00;95231.94;5012991;28;20190;-61
2022/11/09 08:09:32;;;;;;;1999.90;999.90;;;;;;;12.72;100.00;95228.38;5012997;28;20182;-63
2022/11/09 08:11:57;;;;;;;1999.90;999.90;;;;;;;12.99;100.00;95245.47;5013585;28;20188;-62
2022/11/09 08:14:22;;;;;;;1999.90;999.90;;;;;;;13.32;100.00;95236.16;5013237;28;20181;-63
2022/11/09 08:16:48;;;;;;;1999.90;999.90;;;;;;;13.73;100.00;95241.91;5013616;28;20176;-63
2022/11/09 08:19:13;;;;;;;1999.90;999.90;;;;;;;13.81;100.00;95248.81;5016661;28;20251;-63
2022/11/09 08:21:38;;;;;;;1999.90;999.90;;;;;;;13.88;100.00;95254.09;5016073;28;20233;-63
2022/11/09 08:24:04;;;;;;;1999.90;999.90;;;;;;;13.92;100.00;95249.34;5016501;28;20176;-63
2022/11/09 08:26:30;;;;;;;1999.90;999.90;;;;;;;13.85;100.00;95249.50;5016056;28;20171;-63
2022/11/09 08:28:56;;;;;;;1999.90;999.90;;;;;;;13.94;100.00;95246.13;5016654;28;20233;-61
2022/11/09 08:31:21;;;;;;;1999.90;999.90;;;;;;;14.03;100.00;95238.88;5017177;28;20183;-63
2022/11/09 08:33:47;;;;;;;1999.90;999.90;;;;;;;14.07;100.00;95245.06;5017099;28;20321;-63
2022/11/09 08:36:15;;;;;;;1999.90;999.90;;;;;;;14.20;100.00;95247.88;5016297;28;20215;-63
2022/11/09 08:38:41;;;;;;;1999.90;999.90;;;;;;;14.47;100.00;95251.94;5015846;28;20258;-63
2022/11/09 08:41:07;;;;;;;1999.90;999.90;;;;;;;14.74;100.00;95251.59;5016353;28;20202;-63
2022/11/09 08:43:33;;;;;;;1999.90;999.90;;;;;;;15.11;100.00;95246.25;5016333;28;20192;-63
2022/11/09 08:45:58;;;;;;;1999.90;999.90;;;;;;;15.45;100.00;95251.97;5016366;28;20179;-61
2022/11/09 08:48:24;;;;;;;1999.90;999.90;;;;;;;16.00;100.00;95261.72;5016717;28;20215;-61
2022/11/09 08:50:54;;;;;;;1999.90;999.90;;;;;;;16.12;100.00;95253.47;5015536;28;20173;-60
2022/11/09 08:53:20;;;;;;;1999.90;999.90;;;;;;;16.03;100.00;95261.59;5016524;28;20262;-60
2022/11/09 08:55:46;;;;;;;1999.90;999.90;;;;;;;16.00;100.00;95259.72;5015929;28;20186;-60
2022/11/09 08:58:11;;;;;;;1999.90;999.90;;;;;;;15.82;100.00;95267.00;5015775;28;20171;-60
2022/11/09 09:00:37;;;;;;;1999.90;999.90;;;;;;;15.76;100.00;95261.28;5015629;28;20203;-61
2022/11/09 09:03:05;;;;;;;1999.90;999.90;;;;;;;15.60;100.00;95266.09;5015957;28;20183;-60
2022/11/09 09:05:32;;;;;;;1999.90;999.90;;;;;;;15.53;100.00;95272.59;5015291;28;20195;-62
2022/11/09 09:07:59;;;;;;;1999.90;999.90;;;;;;;15.36;100.00;95268.38;5016597;28;20198;-63
2022/11/09 09:10:25;;;;;;;1999.90;999.90;;;;;;;15.28;100.00;95272.50;5015691;28;20186;-64
2022/11/09 09:12:50;;;;;;;1999.90;999.90;;;;;;;15.17;100.00;95272.03;5016137;28;20175;-64
2022/11/09 09:15:16;;;;;;;1999.90;999.90;;;;;;;15.07;100.00;95270.34;5015553;28;20167;-63
2022/11/09 09:17:41;;;;;;;1999.90;999.90;;;;;;;15.02;100.00;95270.88;5015585;28;20186;-64
2022/11/09 09:20:07;;;;;;;1999.90;999.90;;;;;;;14.93;100.00;95273.47;5015619;28;20223;-63
2022/11/09 09:22:32;;;;;;;1999.90;999.90;;;;;;;14.99;100.00;95277.25;5015522;28;20188;-63
2022/11/09 09:24:58;;;;;;;1999.90;999.90;;;;;;;15.03;100.00;95286.16;5016070;28;20251;-62
2022/11/09 09:27:23;;;;;;;1999.90;999.90;;;;;;;15.07;100.00;95284.09;5015326;28;20237;-60
2022/11/09 09:29:48;;;;;;;1999.90;999.90;;;;;;;15.10;100.00;95274.97;5014303;28;20190;-60
2022/11/09 09:32:14;;;;;;;1999.90;999.90;;;;;;;15.23;100.00;95275.78;5015182;28;20187;-60
2022/11/09 09:34:39;;;;;;;1999.90;999.90;;;;;;;15.34;100.00;95287.25;5014860;28;20270;-60
2022/11/09 09:37:04;;;;;;;1999.90;999.90;;;;;;;15.49;100.00;95282.94;5015198;28;20189;-60
2022/11/09 09:39:29;;;;;;;1999.90;999.90;;;;;;;15.53;100.00;95278.09;5014999;28;20270;-62
2022/11/09 09:41:58;;;;;;;1999.90;999.90;;;;;;;15.52;100.00;95275.78;5014979;28;20286;-61
2022/11/09 09:44:31;;;;;;;1999.90;999.90;;;;;;;15.62;100.00;95269.97;5014975;28;20183;-61
2022/11/09 09:47:06;;;;;;;1999.90;999.90;;;;;;;15.55;100.00;95272.91;5014723;28;20266;-61
2022/11/09 09:49:37;;;;;;;1999.90;999.90;;;;;;;15.61;100.00;95282.19;5015005;28;20189;-62
2022/11/09 09:52:11;;;;;;;1999.90;999.90;;;;;;;15.64;100.00;95277.78;4999050;28;20215;-62
2022/11/09 09:54:51;;;;;;;1999.90;999.90;;;;;;;15.59;100.00;95278.34;5014902;28;20260;-61
2022/11/09 09:57:20;;;;;;;1999.90;999.90;;;;;;;15.57;100.00;95273.25;5014680;28;20181;-62
2022/11/09 09:59:55;;;;;;;1999.90;999.90;;;;;;;15.55;100.00;95274.91;5014855;28;20176;-62
2022/11/09 10:02:30;;;;;;;1999.90;999.90;;;;;;;15.53;100.00;95272.59;5014685;28;20207;-62
2022/11/09 10:05:00;;;;;;;1999.90;999.90;;;;;;;15.69;100.00;95275.25;5014726;28;20301;-63
2022/11/09 10:07:44;;;;;;;1999.90;999.90;;;;;;;15.92;100.00;95268.69;5014780;28;20175;-63
2022/11/09 10:10:30;;;;;;;1999.90;999.90;;;;;;;16.40;100.00;95262.81;5014355;28;20218;-63
2022/11/09 10:13:18;;;;;;;1999.90;999.90;;;;;;;16.62;100.00;95277.44;5014716;28;20224;-63
2022/11/09 10:15:57;;;;;;;1999.90;999.90;;;;;;;16.77;100.00;95274.97;5014709;28;20197;-63
2022/11/09 10:18:34;;;;;;;1999.90;999.90;;;;;;;16.75;100.00;95269.16;5014952;28;20278;-62
2022/11/09 10:21:09;;;;;;;1999.90;999.90;;;;;;;16.93;100.00;95272.06;5014052;28;20234;-62
2022/11/09 10:23:43;;;;;;;1999.90;999.90;;;;;;;16.95;100.00;95266.88;5014950;28;20197;-62
2022/11/09 10:26:23;;;;;;;1999.90;999.90;;;;;;;16.96;100.00;95265.63;5013989;28;20182;-62
2022/11/09 10:28:54;;;;;;;1999.90;999.90;;;;;;;16.98;100.00;95263.22;5014965;28;20167;-62
2022/11/09 10:31:22;;;;;;;1999.90;999.90;;;;;;;16.97;100.00;95261.69;5014692;28;20171;-63
2022/11/09 10:33:54;;;;;;;1999.90;999.90;;;;;;;16.91;100.00;95258.72;5014238;28;20175;-62
2022/11/09 10:36:20;;;;;;;1999.90;999.90;;;;;;;16.86;100.00;95241.97;5014706;28;20168;-61
2022/11/09 10:38:49;;;;;;;1999.90;999.90;;;;;;;16.75;100.00;95249.84;5013958;28;20183;-63
2022/11/09 10:41:39;;;;;;;1999.90;999.90;;;;;;;16.68;100.00;95247.31;5012835;28;20674;-62
2022/11/09 10:44:11;;;;;;;1999.90;999.90;;;;;;;16.66;100.00;95242.25;5014790;28;20175;-62
2022/11/09 10:47:06;;;;;;;1999.90;999.90;;;;;;;16.77;100.00;95239.13;5014054;28;20254;-63
2022/11/09 10:49:33;;;;;;;1999.90;999.90;;;;;;;16.86;100.00;95239.22;5013860;28;20616;-62
2022/11/09 10:51:58;;;;;;;1999.90;999.90;;;;;;;16.90;100.00;95234.34;5014074;28;20293;-62